Terminal Aerodrome Forecast
Issued by NWS Grand Forks, ND

Home | Current Version | Previous Version | Graphics & Text | Print | Product List | Glossary On
Versions: 1 2 3 4 5 6 7 8 9 10 11 12
000
FTUS43 KFGF 101100
TAFFAR
TAF
KFAR 101138Z 1012/1112 16008KT P6SM SKC
     FM101600 16012KT P6SM BKN200
     FM110100 15009KT P6SM BKN200=

USA.gov is the U.S. government's official web portal to all federal, state and local government web resources and services.